createdAt,value
2022-09-10T00:02:07.413Z,82.04
2022-09-10T00:04:34.212Z,81.98
2022-09-10T00:07:01.352Z,81.88
2022-09-10T00:09:28.747Z,81.77
2022-09-10T00:11:55.473Z,81.84
2022-09-10T00:14:24.288Z,81.71
2022-09-10T00:16:51.282Z,81.75
2022-09-10T00:19:19.519Z,81.90
2022-09-10T00:21:46.459Z,81.80
2022-09-10T00:24:14.176Z,82.07
2022-09-10T00:26:41.223Z,82.23
2022-09-10T00:29:10.881Z,82.21
2022-09-10T00:31:38.309Z,82.15
2022-09-10T00:34:06.102Z,82.16
2022-09-10T00:36:38.845Z,82.42
2022-09-10T00:39:09.508Z,82.50
2022-09-10T00:41:38.531Z,82.50
2022-09-10T00:44:41.172Z,82.60
2022-09-10T00:47:17.236Z,82.41
2022-09-10T00:49:49.724Z,82.63
2022-09-10T00:52:17.629Z,82.83
2022-09-10T00:54:46.023Z,82.91
2022-09-10T00:57:17.488Z,82.96
2022-09-10T00:59:49.208Z,82.96
2022-09-10T01:02:16.055Z,83.13
2022-09-10T01:04:43.383Z,83.14
2022-09-10T01:07:12.186Z,83.28
2022-09-10T01:09:40.443Z,83.44
2022-09-10T01:12:19.960Z,83.45
2022-09-10T01:15:02.579Z,83.53
2022-09-10T01:17:45.106Z,83.43
2022-09-10T01:20:21.556Z,83.47
2022-09-10T01:22:50.999Z,83.52
2022-09-10T01:25:50.063Z,83.56
2022-09-10T01:28:38.635Z,83.70
2022-09-10T01:31:14.972Z,83.41
2022-09-10T01:33:52.656Z,83.33
2022-09-10T01:36:25.130Z,83.43
2022-09-10T01:38:53.052Z,83.42
2022-09-10T01:41:23.751Z,83.75
2022-09-10T01:43:50.634Z,83.93
2022-09-10T01:46:41.608Z,84.09
2022-09-10T01:49:09.584Z,84.09
2022-09-10T01:51:52.084Z,84.17
2022-09-10T01:54:37.272Z,84.03
2022-09-10T01:57:09.630Z,84.06
2022-09-10T01:59:44.029Z,84.07
2022-09-10T02:02:19.439Z,84.15
2022-09-10T02:04:48.005Z,84.13
2022-09-10T02:07:17.969Z,83.97
2022-09-10T02:09:45.558Z,83.84
2022-09-10T02:12:20.718Z,83.70
2022-09-10T02:14:55.386Z,83.33
2022-09-10T02:17:39.901Z,83.32
2022-09-10T02:20:10.977Z,83.28
2022-09-10T02:22:40.532Z,82.90
2022-09-10T02:25:08.117Z,82.81
2022-09-10T02:27:34.854Z,82.79
2022-09-10T02:30:01.908Z,82.65
2022-09-10T02:32:30.118Z,82.54
2022-09-10T02:34:57.196Z,82.44
2022-09-10T02:37:28.367Z,82.67
2022-09-10T02:39:55.533Z,82.75
2022-09-10T02:42:25.457Z,82.51
2022-09-10T02:44:53.952Z,82.54
2022-09-10T02:47:20.909Z,82.39
2022-09-10T02:49:47.744Z,82.29
2022-09-10T02:52:14.494Z,82.22
2022-09-10T02:54:41.613Z,82.37
2022-09-10T02:57:12.080Z,82.55
2022-09-10T02:59:38.851Z,82.51
2022-09-10T03:02:05.849Z,82.61
2022-09-10T03:04:32.671Z,82.70
2022-09-10T03:06:59.854Z,82.76
2022-09-10T03:09:29.023Z,82.62
2022-09-10T03:11:56.247Z,82.60
2022-09-10T03:14:24.778Z,82.51
2022-09-10T03:16:52.227Z,82.44
2022-09-10T03:19:19.778Z,82.63
2022-09-10T03:21:47.688Z,82.58
2022-09-10T03:24:15.517Z,82.59
2022-09-10T03:26:44.567Z,82.38
2022-09-10T03:29:12.452Z,82.30
2022-09-10T03:31:39.971Z,82.40
2022-09-10T03:34:06.908Z,82.15
2022-09-10T03:36:33.721Z,82.06
2022-09-10T03:39:00.872Z,82.01
2022-09-10T03:41:30.790Z,82.13
2022-09-10T03:43:58.307Z,82.10
2022-09-10T03:46:25.962Z,82.16
2022-09-10T03:48:56.014Z,82.40
2022-09-10T03:51:24.449Z,82.40
2022-09-10T03:53:51.183Z,82.63
2022-09-10T03:56:20.140Z,82.78
2022-09-10T03:58:49.344Z,83.04
2022-09-10T04:01:17.547Z,83.31
2022-09-10T04:03:46.489Z,83.40
2022-09-10T04:06:14.857Z,83.58
2022-09-10T04:08:43.760Z,83.82
2022-09-10T04:11:14.228Z,84.34
2022-09-10T04:13:41.822Z,84.77
2022-09-10T04:16:10.264Z,84.82
2022-09-10T04:18:37.369Z,84.92
2022-09-10T04:21:04.522Z,84.88
2022-09-10T04:23:32.909Z,84.95
2022-09-10T04:26:01.461Z,85.15
2022-09-10T04:28:28.563Z,85.10
2022-09-10T04:30:55.501Z,84.99
2022-09-10T04:33:25.114Z,85.01
2022-09-10T04:35:52.598Z,84.86
2022-09-10T04:38:20.901Z,84.87
2022-09-10T04:40:48.995Z,84.95
2022-09-10T04:43:15.948Z,84.86
2022-09-10T04:45:43.745Z,84.93
2022-09-10T04:48:10.794Z,84.67
2022-09-10T04:50:54.006Z,84.70
2022-09-10T04:53:27.904Z,84.58
2022-09-10T04:55:56.357Z,84.65
2022-09-10T04:58:23.363Z,84.87
2022-09-10T05:00:50.608Z,84.93
2022-09-10T05:03:19.186Z,84.74
2022-09-10T05:05:48.080Z,84.88
2022-09-10T05:08:15.072Z,84.74
2022-09-10T05:10:47.373Z,84.50
2022-09-10T05:13:15.045Z,84.43
2022-09-10T05:15:42.872Z,84.39
2022-09-10T05:18:09.860Z,84.26
2022-09-10T05:20:38.203Z,84.15
2022-09-10T05:23:05.053Z,84.11
2022-09-10T05:25:34.680Z,84.12
2022-09-10T05:28:02.262Z,84.04
2022-09-10T05:30:33.094Z,83.98
2022-09-10T05:33:01.623Z,83.95
2022-09-10T05:35:30.390Z,83.76
2022-09-10T05:38:00.553Z,83.76
2022-09-10T05:40:29.462Z,83.54
2022-09-10T05:42:56.965Z,83.37
2022-09-10T05:45:24.158Z,83.31
2022-09-10T05:47:51.609Z,83.10
2022-09-10T05:50:21.855Z,83.20
2022-09-10T05:52:49.285Z,83.21
2022-09-10T05:55:17.358Z,83.57
2022-09-10T05:57:44.122Z,83.79
2022-09-10T06:00:15.546Z,83.84
2022-09-10T06:02:46.128Z,83.69
2022-09-10T06:05:26.628Z,83.92
2022-09-10T06:07:54.192Z,84.09
2022-09-10T06:10:20.989Z,83.73
2022-09-10T06:12:52.189Z,84.04
2022-09-10T06:15:21.315Z,83.85
2022-09-10T06:17:50.171Z,83.66
2022-09-10T06:20:17.700Z,83.38
2022-09-10T06:22:45.911Z,83.21
2022-09-10T06:25:12.871Z,82.82
2022-09-10T06:27:40.883Z,83.00
2022-09-10T06:30:08.727Z,82.84
2022-09-10T06:32:39.449Z,82.55
2022-09-10T06:35:08.902Z,82.47
2022-09-10T06:37:37.103Z,82.39
2022-09-10T06:40:07.042Z,82.04
2022-09-10T06:42:34.852Z,82.26
2022-09-10T06:45:09.981Z,82.23
2022-09-10T06:50:51.176Z,82.20
2022-09-10T06:53:18.077Z,82.29
2022-09-10T06:55:46.041Z,82.20
2022-09-10T06:58:13.505Z,82.11
2022-09-10T07:00:40.282Z,82.09
2022-09-10T07:03:07.156Z,81.64
2022-09-10T07:05:34.235Z,81.19
2022-09-10T07:08:02.241Z,81.17
2022-09-10T07:10:31.441Z,81.15
2022-09-10T07:12:58.280Z,81.09
2022-09-10T07:15:25.001Z,81.03
2022-09-10T07:17:51.748Z,80.69
2022-09-10T07:20:23.437Z,80.37
2022-09-10T07:22:54.910Z,80.17
2022-09-10T07:25:25.112Z,80.18
2022-09-10T07:27:57.089Z,80.11
2022-09-10T07:30:24.873Z,80.35
2022-09-10T07:32:52.140Z,80.81
2022-09-10T07:35:24.236Z,80.58
2022-09-10T07:37:51.262Z,80.34
2022-09-10T07:40:19.993Z,80.12
2022-09-10T07:42:46.993Z,79.81
2022-09-10T07:45:16.269Z,79.95
2022-09-10T07:47:44.779Z,79.75
2022-09-10T07:50:12.206Z,79.47
2022-09-10T07:52:39.305Z,79.16
2022-09-10T07:55:07.128Z,79.31
2022-09-10T07:57:38.046Z,79.97
2022-09-10T08:00:08.138Z,80.31
2022-09-10T08:02:43.274Z,80.44
2022-09-10T08:05:13.806Z,80.45
2022-09-10T08:07:41.707Z,81.02
2022-09-10T08:10:10.641Z,81.24
2022-09-10T08:12:39.914Z,81.15
2022-09-10T08:15:08.636Z,81.44
2022-09-10T08:17:36.966Z,81.48
2022-09-10T08:20:07.847Z,81.67
2022-09-10T08:22:35.832Z,81.39
2022-09-10T08:25:03.489Z,80.53
2022-09-10T08:27:33.612Z,80.47
2022-09-10T08:30:02.205Z,80.34
2022-09-10T08:32:30.049Z,79.32
2022-09-10T08:34:57.022Z,79.17
2022-09-10T08:37:25.432Z,79.77
2022-09-10T08:39:52.902Z,79.11
2022-09-10T08:42:28.805Z,77.89
2022-09-10T08:45:08.428Z,77.88
2022-09-10T08:48:09.933Z,77.25
2022-09-10T08:50:47.965Z,77.11
2022-09-10T08:53:26.245Z,77.08
2022-09-10T08:55:59.748Z,78.05
2022-09-10T08:58:44.911Z,78.17
2022-09-10T09:01:22.363Z,77.29
2022-09-10T09:03:54.063Z,76.61
2022-09-10T09:06:38.243Z,77.02
2022-09-10T09:09:06.020Z,75.65
2022-09-10T09:11:40.034Z,75.39
2022-09-10T09:14:31.068Z,75.26
2022-09-10T09:17:01.700Z,75.42
2022-09-10T09:19:29.529Z,74.72
2022-09-10T09:22:05.775Z,74.38
2022-09-10T09:24:45.635Z,71.52
2022-09-10T09:27:17.545Z,70.27
2022-09-10T09:29:52.068Z,71.09
2022-09-10T09:32:21.850Z,70.88
2022-09-10T09:34:54.538Z,70.21
2022-09-10T09:37:30.176Z,69.78
2022-09-10T09:40:27.233Z,68.63
2022-09-10T09:42:57.438Z,67.97
2022-09-10T09:45:39.111Z,67.14
2022-09-10T09:48:11.304Z,67.74
2022-09-10T09:50:44.987Z,67.55
2022-09-10T09:53:19.491Z,66.19
2022-09-10T09:55:52.254Z,65.93
2022-09-10T09:58:24.259Z,63.50
2022-09-10T10:01:11.135Z,62.91
2022-09-10T10:03:51.837Z,62.55
2022-09-10T10:06:25.204Z,62.75
2022-09-10T10:08:56.369Z,63.48
2022-09-10T10:11:38.672Z,62.25
2022-09-10T10:14:21.552Z,61.29
2022-09-10T10:16:52.278Z,60.05
2022-09-10T10:19:34.427Z,59.17
2022-09-10T10:22:17.254Z,60.55
2022-09-10T10:24:45.741Z,60.25
2022-09-10T10:27:35.325Z,60.21
2022-09-10T10:30:22.148Z,60.99
2022-09-10T10:32:53.479Z,60.89
2022-09-10T10:35:24.991Z,61.74
2022-09-10T10:38:14.842Z,60.59
2022-09-10T10:40:48.676Z,59.59
2022-09-10T10:43:51.099Z,59.55
2022-09-10T10:46:22.174Z,58.32
2022-09-10T10:49:12.319Z,57.45
2022-09-10T10:52:00.526Z,57.22
2022-09-10T10:54:50.572Z,57.59
2022-09-10T10:57:48.762Z,56.34
2022-09-10T11:00:19.013Z,55.47
2022-09-10T11:03:05.891Z,55.47
2022-09-10T11:05:38.714Z,53.84
2022-09-10T11:08:12.372Z,54.61
2022-09-10T11:10:45.163Z,54.71
2022-09-10T11:13:32.693Z,54.51
2022-09-10T11:16:06.389Z,53.04
2022-09-10T11:18:43.011Z,54.52
2022-09-10T11:21:37.714Z,53.67
2022-09-10T11:24:16.945Z,53.99
2022-09-10T11:26:46.533Z,55.23
2022-09-10T11:29:25.459Z,55.75
2022-09-10T11:32:00.851Z,55.32
2022-09-10T11:34:59.041Z,55.30
2022-09-10T11:37:43.353Z,55.66
2022-09-10T11:40:20.130Z,56.54
2022-09-10T11:42:53.314Z,57.68
2022-09-10T11:45:36.360Z,57.33
2022-09-10T11:48:14.784Z,57.26
2022-09-10T11:50:53.479Z,55.75
2022-09-10T11:53:23.398Z,55.57
2022-09-10T11:56:21.786Z,56.26
2022-09-10T11:59:04.975Z,55.34
2022-09-10T12:01:49.426Z,53.03
2022-09-10T12:04:25.529Z,51.05
2022-09-10T12:07:11.078Z,48.73
2022-09-10T12:09:54.771Z,47.66
2022-09-10T12:12:26.380Z,46.00
2022-09-10T12:14:54.148Z,44.52
2022-09-10T12:17:28.597Z,42.87
2022-09-10T12:19:58.665Z,40.14
2022-09-10T12:22:30.958Z,39.52
2022-09-10T12:25:16.853Z,38.71
2022-09-10T12:27:59.688Z,37.30
2022-09-10T12:30:29.202Z,36.85
2022-09-10T12:33:00.623Z,35.86
2022-09-10T12:35:34.730Z,35.05
2022-09-10T12:38:33.308Z,34.51
2022-09-10T12:41:02.182Z,33.57
2022-09-10T12:43:45.111Z,32.72
2022-09-10T12:46:13.537Z,33.18
2022-09-10T12:48:45.690Z,34.03
2022-09-10T12:51:20.580Z,34.50
2022-09-10T12:53:47.891Z,32.96
2022-09-10T12:56:21.639Z,32.54
2022-09-10T12:58:50.759Z,34.23
2022-09-10T13:01:46.517Z,33.70
2022-09-10T13:04:30.188Z,35.45
2022-09-10T13:07:01.564Z,36.31
2022-09-10T13:09:31.874Z,37.42
2022-09-10T13:12:04.196Z,37.93
2022-09-10T13:14:36.207Z,38.46
2022-09-10T13:17:04.274Z,39.84
2022-09-10T13:19:31.629Z,40.95
2022-09-10T13:21:58.781Z,41.89
2022-09-10T13:24:57.160Z,40.87
2022-09-10T13:27:40.553Z,40.48
2022-09-10T13:30:17.780Z,41.10
2022-09-10T13:32:52.306Z,42.96
2022-09-10T13:35:19.859Z,43.69
2022-09-10T13:37:49.360Z,44.33
2022-09-10T13:40:47.469Z,45.14
2022-09-10T13:43:29.038Z,46.31
2022-09-10T13:46:02.950Z,45.12
2022-09-10T13:48:43.380Z,45.27
2022-09-10T13:51:31.208Z,43.68
2022-09-10T13:54:07.522Z,42.45
2022-09-10T13:56:36.255Z,42.01
2022-09-10T13:59:05.515Z,43.48
2022-09-10T14:01:56.259Z,43.77
2022-09-10T14:04:26.388Z,41.19
2022-09-10T14:06:58.339Z,39.79
2022-09-10T14:09:26.337Z,38.09
2022-09-10T14:11:54.191Z,38.48
2022-09-10T14:14:27.337Z,37.19
2022-09-10T14:17:00.080Z,36.99
2022-09-10T14:19:37.678Z,36.72
2022-09-10T14:22:09.424Z,36.58
2022-09-10T14:24:38.407Z,36.50
2022-09-10T14:27:06.514Z,37.06
2022-09-10T14:29:33.334Z,36.08
2022-09-10T14:32:16.946Z,33.68
2022-09-10T14:34:43.803Z,33.83
2022-09-10T14:37:42.706Z,34.28
2022-09-10T14:40:17.946Z,36.54
2022-09-10T14:42:47.176Z,36.64
2022-09-10T14:45:37.827Z,37.59
2022-09-10T14:48:06.533Z,40.32
2022-09-10T14:50:34.860Z,42.92
2022-09-10T14:53:01.792Z,43.13
2022-09-10T14:55:32.306Z,44.93
2022-09-10T14:57:59.423Z,45.95
2022-09-10T15:00:26.471Z,46.49
2022-09-10T15:02:56.101Z,47.51
2022-09-10T15:05:23.025Z,49.35
2022-09-10T15:07:50.358Z,51.01
2022-09-10T15:10:17.311Z,52.68
2022-09-10T15:12:47.174Z,52.96
2022-09-10T15:15:17.270Z,53.08
2022-09-10T15:17:44.702Z,54.72
2022-09-10T15:20:14.862Z,55.87
2022-09-10T15:22:41.627Z,55.89
2022-09-10T15:25:27.421Z,55.23
2022-09-10T15:27:54.133Z,55.89
2022-09-10T15:30:23.164Z,56.44
2022-09-10T15:32:49.912Z,57.41
2022-09-10T15:35:16.972Z,58.03
2022-09-10T15:37:43.766Z,59.12
2022-09-10T15:40:11.173Z,60.34
2022-09-10T15:42:37.978Z,61.59
2022-09-10T15:45:05.016Z,62.22
2022-09-10T15:47:33.635Z,63.29
2022-09-10T15:50:00.327Z,63.87
2022-09-10T15:52:27.072Z,64.14
2022-09-10T15:54:54.489Z,64.42
2022-09-10T15:57:21.260Z,64.42
2022-09-10T15:59:47.994Z,64.43
2022-09-10T16:02:14.868Z,64.31
2022-09-10T16:04:43.158Z,64.01
2022-09-10T16:07:10.134Z,64.26
2022-09-10T16:09:36.952Z,64.51
2022-09-10T16:12:03.835Z,65.14
2022-09-10T16:14:32.215Z,65.46
2022-09-10T16:16:58.990Z,66.37
2022-09-10T16:19:25.736Z,67.72
2022-09-10T16:21:53.237Z,67.59
2022-09-10T16:24:20.036Z,67.48
2022-09-10T16:26:48.140Z,68.01
2022-09-10T16:29:17.994Z,67.71
2022-09-10T16:31:46.074Z,67.81
2022-09-10T16:34:16.306Z,68.06
2022-09-10T16:36:43.791Z,69.24
2022-09-10T16:39:13.469Z,69.31
2022-09-10T16:41:41.543Z,64.78
2022-09-10T16:44:09.269Z,63.75
2022-09-10T16:46:36.236Z,63.28
2022-09-10T16:49:03.122Z,63.25
2022-09-10T16:51:29.929Z,63.68
2022-09-10T16:54:03.275Z,64.16
2022-09-10T16:56:35.943Z,64.66
2022-09-10T16:59:02.684Z,64.12
2022-09-10T17:01:31.254Z,64.13
2022-09-10T17:03:58.061Z,64.84
2022-09-10T17:06:27.071Z,65.66
2022-09-10T17:08:57.190Z,66.94
2022-09-10T17:11:26.811Z,67.84
2022-09-10T17:13:54.352Z,68.75
2022-09-10T17:16:21.716Z,69.13
2022-09-10T17:18:56.350Z,68.91
2022-09-10T17:21:23.086Z,68.84
2022-09-10T17:23:49.794Z,67.36
2022-09-10T17:26:18.022Z,67.71
2022-09-10T17:28:44.848Z,67.94
2022-09-10T17:31:11.671Z,68.52
2022-09-10T17:33:39.139Z,69.02
2022-09-10T17:36:06.084Z,69.94
2022-09-10T17:38:34.844Z,70.00
2022-09-10T17:41:03.850Z,70.91
2022-09-10T17:43:35.637Z,71.46
2022-09-10T17:46:05.520Z,71.80
2022-09-10T17:48:33.317Z,71.77
2022-09-10T17:51:00.304Z,72.37
2022-09-10T17:53:27.569Z,72.60
2022-09-10T17:55:54.926Z,72.98
2022-09-10T17:58:23.286Z,73.26
2022-09-10T18:00:50.053Z,73.49
2022-09-10T18:03:17.853Z,73.82
2022-09-10T18:05:45.996Z,74.16
2022-09-10T18:08:13.463Z,74.47
2022-09-10T18:10:40.523Z,75.21
2022-09-10T18:13:08.335Z,75.51
2022-09-10T18:15:42.235Z,75.80
2022-09-10T18:18:09.831Z,76.23
2022-09-10T18:20:36.786Z,76.80
2022-09-10T18:23:04.007Z,77.16
2022-09-10T18:25:32.390Z,77.15
2022-09-10T18:28:01.604Z,77.41
2022-09-10T18:30:29.521Z,77.41
2022-09-10T18:32:56.415Z,77.81
2022-09-10T18:35:23.382Z,78.20
2022-09-10T18:37:51.874Z,78.48
2022-09-10T18:40:19.742Z,78.80
2022-09-10T18:42:47.921Z,79.12
2022-09-10T18:45:14.748Z,79.35
2022-09-10T18:47:45.236Z,79.19
2022-09-10T18:50:13.462Z,79.02
2022-09-10T18:52:40.469Z,79.20
2022-09-10T18:55:07.723Z,79.17
2022-09-10T18:57:34.459Z,79.50
2022-09-10T19:00:01.469Z,79.79
2022-09-10T19:02:28.498Z,79.88
2022-09-10T19:05:10.744Z,80.09
2022-09-10T19:07:39.019Z,80.14
2022-09-10T19:10:07.152Z,80.29
2022-09-10T19:12:34.294Z,80.46
2022-09-10T19:15:01.375Z,80.54
2022-09-10T19:17:28.199Z,80.42
2022-09-10T19:19:54.928Z,80.50
2022-09-10T19:22:22.085Z,80.61
2022-09-10T19:24:56.398Z,80.79
2022-09-10T19:27:24.241Z,80.93
2022-09-10T19:30:09.104Z,80.68
2022-09-10T19:32:35.983Z,80.59
2022-09-10T19:35:02.807Z,80.50
2022-09-10T19:37:29.666Z,80.34
2022-09-10T19:39:57.023Z,80.28
2022-09-10T19:42:24.666Z,80.30
2022-09-10T19:44:52.508Z,80.23
2022-09-10T19:47:20.170Z,80.44
2022-09-10T19:49:48.335Z,80.64
2022-09-10T19:52:15.623Z,80.45
2022-09-10T19:54:42.409Z,80.22
2022-09-10T19:57:09.123Z,80.06
2022-09-10T19:59:36.007Z,79.83
2022-09-10T20:02:02.987Z,79.72
2022-09-10T20:04:29.944Z,79.84
2022-09-10T20:06:56.949Z,79.81
2022-09-10T20:09:24.312Z,79.83
2022-09-10T20:11:51.264Z,79.93
2022-09-10T20:14:19.820Z,79.78
2022-09-10T20:16:46.630Z,79.46
2022-09-10T20:19:18.527Z,79.54
2022-09-10T20:21:46.608Z,80.02
2022-09-10T20:24:14.245Z,80.04
2022-09-10T20:26:57.219Z,79.89
2022-09-10T20:29:25.660Z,80.31
2022-09-10T20:31:53.204Z,80.79
2022-09-10T20:34:22.040Z,81.01
2022-09-10T20:36:51.486Z,81.18
2022-09-10T20:39:21.387Z,81.29
2022-09-10T20:41:48.787Z,81.37
2022-09-10T20:44:17.468Z,80.96
2022-09-10T20:46:44.917Z,80.49
2022-09-10T20:49:13.493Z,80.44
2022-09-10T20:51:41.446Z,80.23
2022-09-10T20:54:11.698Z,80.03
2022-09-10T20:56:38.569Z,79.77
2022-09-10T20:59:05.286Z,80.33
2022-09-10T21:01:32.900Z,80.42
2022-09-10T21:04:01.456Z,80.95
2022-09-10T21:06:31.310Z,81.49
2022-09-10T21:08:59.092Z,81.76
2022-09-10T21:11:29.020Z,81.98
2022-09-10T21:13:58.452Z,82.03
2022-09-10T21:16:28.252Z,82.15
2022-09-10T21:18:58.671Z,82.23
2022-09-10T21:21:27.935Z,82.50
2022-09-10T21:23:57.703Z,82.94
2022-09-10T21:26:27.487Z,83.24
2022-09-10T21:28:56.412Z,83.43
2022-09-10T21:31:23.881Z,83.39
2022-09-10T21:33:51.410Z,83.13
2022-09-10T21:36:20.476Z,83.01
2022-09-10T21:38:49.720Z,83.07
2022-09-10T21:41:19.386Z,83.09
2022-09-10T21:43:47.690Z,83.36
2022-09-10T21:46:15.023Z,83.33
2022-09-10T21:48:42.685Z,83.30
2022-09-10T21:51:14.176Z,83.52
2022-09-10T21:53:42.279Z,83.89
2022-09-10T21:56:12.058Z,84.10
2022-09-10T21:58:39.321Z,84.20
2022-09-10T22:01:12.166Z,83.82
2022-09-10T22:03:39.962Z,83.76
2022-09-10T22:06:08.792Z,83.53
2022-09-10T22:08:37.128Z,83.28
2022-09-10T22:11:06.578Z,83.11
2022-09-10T22:13:34.240Z,83.19
2022-09-10T22:16:01.165Z,83.62
2022-09-10T22:18:27.988Z,83.87
2022-09-10T22:21:00.797Z,84.13
2022-09-10T22:23:30.722Z,83.89
2022-09-10T22:26:06.778Z,83.93
2022-09-10T22:28:35.135Z,83.91
2022-09-10T22:31:20.023Z,84.28
2022-09-10T22:33:52.076Z,84.53
2022-09-10T22:36:23.650Z,85.02
2022-09-10T22:38:53.429Z,85.01
2022-09-10T22:41:21.601Z,85.31
2022-09-10T22:43:49.252Z,85.06
2022-09-10T22:46:16.506Z,85.17
2022-09-10T22:48:44.546Z,85.21
2022-09-10T22:51:14.220Z,85.52
2022-09-10T22:53:42.521Z,85.60
2022-09-10T22:56:10.386Z,85.78
2022-09-10T22:58:37.901Z,85.86
2022-09-10T23:01:06.726Z,85.56
2022-09-10T23:03:33.675Z,85.55
2022-09-10T23:06:03.968Z,85.84
2022-09-10T23:08:32.254Z,86.01
2022-09-10T23:11:18.519Z,86.10
2022-09-10T23:13:47.095Z,85.86
2022-09-10T23:16:18.418Z,86.23
2022-09-10T23:18:51.089Z,86.17
2022-09-10T23:21:19.562Z,86.12
2022-09-10T23:23:48.438Z,86.18
2022-09-10T23:26:17.313Z,86.12
2022-09-10T23:28:45.002Z,86.00
2022-09-10T23:31:21.356Z,85.87
2022-09-10T23:33:58.388Z,85.42
2022-09-10T23:36:26.887Z,85.54
2022-09-10T23:38:54.073Z,85.59
2022-09-10T23:41:22.030Z,85.60
2022-09-10T23:43:48.853Z,85.63
2022-09-10T23:46:15.940Z,85.57
2022-09-10T23:48:43.711Z,85.53
2022-09-10T23:51:14.018Z,85.76
2022-09-10T23:53:41.047Z,85.52
2022-09-10T23:56:08.679Z,85.30
2022-09-10T23:58:35.488Z,85.18
